sensor_id;sensor_type;location;lat;lon;timestamp;P1;durP1;ratioP1;P2;durP2;ratioP2
59159;SDS011;44941;45.058;20.076;2024-03-02T00:00:10;19.92;;;14.07;;
59159;SDS011;44941;45.058;20.076;2024-03-02T00:02:41;23.05;;;14.25;;
59159;SDS011;44941;45.058;20.076;2024-03-02T00:05:07;19.40;;;13.45;;
59159;SDS011;44941;45.058;20.076;2024-03-02T00:07:33;21.13;;;14.60;;
59159;SDS011;44941;45.058;20.076;2024-03-02T00:10:00;22.88;;;14.77;;
59159;SDS011;44941;45.058;20.076;2024-03-02T00:12:26;21.08;;;13.98;;
59159;SDS011;44941;45.058;20.076;2024-03-02T00:14:52;20.35;;;13.90;;
59159;SDS011;44941;45.058;20.076;2024-03-02T00:17:21;20.73;;;13.50;;
59159;SDS011;44941;45.058;20.076;2024-03-02T00:19:50;23.42;;;14.50;;
59159;SDS011;44941;45.058;20.076;2024-03-02T00:22:17;21.58;;;14.70;;
59159;SDS011;44941;45.058;20.076;2024-03-02T00:24:43;22.50;;;14.63;;
59159;SDS011;44941;45.058;20.076;2024-03-02T00:27:10;22.13;;;15.05;;
59159;SDS011;44941;45.058;20.076;2024-03-02T00:29:39;23.13;;;14.90;;
59159;SDS011;44941;45.058;20.076;2024-03-02T00:32:10;24.05;;;16.02;;
59159;SDS011;44941;45.058;20.076;2024-03-02T00:34:38;27.33;;;16.15;;
59159;SDS011;44941;45.058;20.076;2024-03-02T00:37:04;22.67;;;16.00;;
59159;SDS011;44941;45.058;20.076;2024-03-02T00:39:30;25.40;;;17.77;;
59159;SDS011;44941;45.058;20.076;2024-03-02T00:41:57;27.63;;;17.98;;
59159;SDS011;44941;45.058;20.076;2024-03-02T00:44:24;28.45;;;18.00;;
59159;SDS011;44941;45.058;20.076;2024-03-02T00:46:59;25.88;;;17.17;;
59159;SDS011;44941;45.058;20.076;2024-03-02T00:49:25;25.63;;;17.20;;
59159;SDS011;44941;45.058;20.076;2024-03-02T00:51:53;28.02;;;18.02;;
59159;SDS011;44941;45.058;20.076;2024-03-02T00:54:20;30.55;;;17.45;;
59159;SDS011;44941;45.058;20.076;2024-03-02T00:56:48;28.80;;;17.73;;
59159;SDS011;44941;45.058;20.076;2024-03-02T00:59:14;25.52;;;17.83;;
59159;SDS011;44941;45.058;20.076;2024-03-02T01:01:40;27.08;;;17.73;;
59159;SDS011;44941;45.058;20.076;2024-03-02T01:04:07;25.27;;;17.45;;
59159;SDS011;44941;45.058;20.076;2024-03-02T01:06:34;27.02;;;17.65;;
59159;SDS011;44941;45.058;20.076;2024-03-02T01:09:00;28.75;;;17.50;;
59159;SDS011;44941;45.058;20.076;2024-03-02T01:11:27;24.23;;;16.50;;
59159;SDS011;44941;45.058;20.076;2024-03-02T01:13:53;31.60;;;18.23;;
59159;SDS011;44941;45.058;20.076;2024-03-02T01:16:20;26.33;;;18.10;;
59159;SDS011;44941;45.058;20.076;2024-03-02T01:18:46;26.55;;;17.02;;
59159;SDS011;44941;45.058;20.076;2024-03-02T01:21:12;25.73;;;16.60;;
59159;SDS011;44941;45.058;20.076;2024-03-02T01:23:38;26.88;;;16.23;;
59159;SDS011;44941;45.058;20.076;2024-03-02T01:26:04;24.98;;;15.65;;
59159;SDS011;44941;45.058;20.076;2024-03-02T01:28:30;24.27;;;17.40;;
59159;SDS011;44941;45.058;20.076;2024-03-02T01:30:56;25.38;;;16.48;;
59159;SDS011;44941;45.058;20.076;2024-03-02T01:33:22;26.90;;;15.88;;
59159;SDS011;44941;45.058;20.076;2024-03-02T01:35:48;23.63;;;16.70;;
59159;SDS011;44941;45.058;20.076;2024-03-02T01:38:15;25.38;;;16.17;;
59159;SDS011;44941;45.058;20.076;2024-03-02T01:40:41;22.58;;;15.82;;
59159;SDS011;44941;45.058;20.076;2024-03-02T01:43:09;20.40;;;14.93;;
59159;SDS011;44941;45.058;20.076;2024-03-02T01:45:35;24.30;;;14.57;;
59159;SDS011;44941;45.058;20.076;2024-03-02T01:48:03;22.42;;;13.93;;
59159;SDS011;44941;45.058;20.076;2024-03-02T01:50:31;22.73;;;14.73;;
59159;SDS011;44941;45.058;20.076;2024-03-02T01:52:57;21.23;;;14.60;;
59159;SDS011;44941;45.058;20.076;2024-03-02T01:55:23;21.70;;;13.52;;
59159;SDS011;44941;45.058;20.076;2024-03-02T01:57:50;23.20;;;13.77;;
59159;SDS011;44941;45.058;20.076;2024-03-02T02:00:17;19.55;;;13.02;;
59159;SDS011;44941;45.058;20.076;2024-03-02T02:02:43;19.77;;;13.32;;
59159;SDS011;44941;45.058;20.076;2024-03-02T02:05:10;20.05;;;12.43;;
59159;SDS011;44941;45.058;20.076;2024-03-02T02:07:36;19.58;;;12.07;;
59159;SDS011;44941;45.058;20.076;2024-03-02T02:10:02;19.00;;;12.07;;
59159;SDS011;44941;45.058;20.076;2024-03-02T02:12:28;16.58;;;10.95;;
59159;SDS011;44941;45.058;20.076;2024-03-02T02:14:55;16.70;;;11.25;;
59159;SDS011;44941;45.058;20.076;2024-03-02T02:17:21;17.45;;;11.15;;
59159;SDS011;44941;45.058;20.076;2024-03-02T02:19:47;15.30;;;10.35;;
59159;SDS011;44941;45.058;20.076;2024-03-02T02:22:13;15.18;;;10.32;;
59159;SDS011;44941;45.058;20.076;2024-03-02T02:24:40;17.38;;;10.95;;
59159;SDS011;44941;45.058;20.076;2024-03-02T02:27:06;16.50;;;10.57;;
59159;SDS011;44941;45.058;20.076;2024-03-02T02:29:33;19.27;;;10.77;;
59159;SDS011;44941;45.058;20.076;2024-03-02T02:31:59;14.50;;;10.07;;
59159;SDS011;44941;45.058;20.076;2024-03-02T02:34:25;14.40;;;10.07;;
59159;SDS011;44941;45.058;20.076;2024-03-02T02:36:51;14.05;;;9.40;;
59159;SDS011;44941;45.058;20.076;2024-03-02T02:39:17;14.90;;;10.00;;
59159;SDS011;44941;45.058;20.076;2024-03-02T02:41:44;16.30;;;9.02;;
59159;SDS011;44941;45.058;20.076;2024-03-02T02:44:10;15.93;;;9.95;;
59159;SDS011;44941;45.058;20.076;2024-03-02T02:46:38;16.63;;;10.50;;
59159;SDS011;44941;45.058;20.076;2024-03-02T02:49:04;15.35;;;9.98;;
59159;SDS011;44941;45.058;20.076;2024-03-02T02:51:30;16.40;;;10.52;;
59159;SDS011;44941;45.058;20.076;2024-03-02T02:53:56;13.88;;;9.18;;
59159;SDS011;44941;45.058;20.076;2024-03-02T02:56:22;14.77;;;9.30;;
59159;SDS011;44941;45.058;20.076;2024-03-02T02:58:48;14.35;;;8.45;;
59159;SDS011;44941;45.058;20.076;2024-03-02T03:01:15;14.57;;;9.70;;
59159;SDS011;44941;45.058;20.076;2024-03-02T03:03:44;14.85;;;9.10;;
59159;SDS011;44941;45.058;20.076;2024-03-02T03:06:11;13.57;;;8.95;;
59159;SDS011;44941;45.058;20.076;2024-03-02T03:08:37;14.30;;;8.68;;
59159;SDS011;44941;45.058;20.076;2024-03-02T03:11:03;14.77;;;8.20;;
59159;SDS011;44941;45.058;20.076;2024-03-02T03:13:30;15.40;;;9.52;;
59159;SDS011;44941;45.058;20.076;2024-03-02T03:15:57;13.30;;;8.50;;
59159;SDS011;44941;45.058;20.076;2024-03-02T03:18:23;14.32;;;8.80;;
59159;SDS011;44941;45.058;20.076;2024-03-02T03:20:49;13.20;;;8.45;;
59159;SDS011;44941;45.058;20.076;2024-03-02T03:23:15;13.15;;;9.10;;
59159;SDS011;44941;45.058;20.076;2024-03-02T03:25:42;13.23;;;8.70;;
59159;SDS011;44941;45.058;20.076;2024-03-02T03:28:08;19.05;;;9.88;;
59159;SDS011;44941;45.058;20.076;2024-03-02T03:30:38;13.40;;;8.73;;
59159;SDS011;44941;45.058;20.076;2024-03-02T03:33:04;13.10;;;8.88;;
59159;SDS011;44941;45.058;20.076;2024-03-02T03:35:33;14.00;;;8.50;;
59159;SDS011;44941;45.058;20.076;2024-03-02T03:38:00;14.20;;;8.68;;
59159;SDS011;44941;45.058;20.076;2024-03-02T03:40:26;12.88;;;8.77;;
59159;SDS011;44941;45.058;20.076;2024-03-02T03:42:52;13.00;;;8.40;;
59159;SDS011;44941;45.058;20.076;2024-03-02T03:45:18;14.15;;;8.95;;
59159;SDS011;44941;45.058;20.076;2024-03-02T03:47:45;12.52;;;8.57;;
59159;SDS011;44941;45.058;20.076;2024-03-02T03:50:11;15.32;;;8.88;;
59159;SDS011;44941;45.058;20.076;2024-03-02T03:52:37;17.13;;;9.60;;
59159;SDS011;44941;45.058;20.076;2024-03-02T03:55:03;14.25;;;9.05;;
59159;SDS011;44941;45.058;20.076;2024-03-02T03:57:30;12.65;;;8.60;;
59159;SDS011;44941;45.058;20.076;2024-03-02T03:59:56;15.95;;;9.75;;
59159;SDS011;44941;45.058;20.076;2024-03-02T04:02:22;14.70;;;9.80;;
59159;SDS011;44941;45.058;20.076;2024-03-02T04:04:49;14.40;;;9.02;;
59159;SDS011;44941;45.058;20.076;2024-03-02T04:07:15;15.40;;;9.48;;
59159;SDS011;44941;45.058;20.076;2024-03-02T04:09:42;19.83;;;10.50;;
59159;SDS011;44941;45.058;20.076;2024-03-02T04:12:08;18.98;;;11.02;;
59159;SDS011;44941;45.058;20.076;2024-03-02T04:14:34;19.70;;;11.07;;
59159;SDS011;44941;45.058;20.076;2024-03-02T04:17:00;17.38;;;10.73;;
59159;SDS011;44941;45.058;20.076;2024-03-02T04:19:27;17.60;;;10.35;;
59159;SDS011;44941;45.058;20.076;2024-03-02T04:21:53;14.55;;;9.88;;
59159;SDS011;44941;45.058;20.076;2024-03-02T04:24:19;18.30;;;10.65;;
59159;SDS011;44941;45.058;20.076;2024-03-02T04:26:45;15.82;;;10.27;;
59159;SDS011;44941;45.058;20.076;2024-03-02T04:29:11;20.65;;;11.32;;
59159;SDS011;44941;45.058;20.076;2024-03-02T04:31:37;19.00;;;11.93;;
59159;SDS011;44941;45.058;20.076;2024-03-02T04:34:03;19.88;;;11.27;;
59159;SDS011;44941;45.058;20.076;2024-03-02T04:36:29;27.77;;;14.05;;
59159;SDS011;44941;45.058;20.076;2024-03-02T04:38:55;23.55;;;13.55;;
59159;SDS011;44941;45.058;20.076;2024-03-02T04:41:21;16.85;;;10.85;;
59159;SDS011;44941;45.058;20.076;2024-03-02T04:43:47;16.92;;;11.63;;
59159;SDS011;44941;45.058;20.076;2024-03-02T04:46:14;16.88;;;9.73;;
59159;SDS011;44941;45.058;20.076;2024-03-02T04:48:40;11.93;;;8.35;;
59159;SDS011;44941;45.058;20.076;2024-03-02T04:51:06;12.63;;;8.20;;
59159;SDS011;44941;45.058;20.076;2024-03-02T04:53:32;13.02;;;8.50;;
59159;SDS011;44941;45.058;20.076;2024-03-02T04:55:59;12.48;;;8.13;;
59159;SDS011;44941;45.058;20.076;2024-03-02T04:58:43;14.30;;;9.20;;
59159;SDS011;44941;45.058;20.076;2024-03-02T05:01:09;13.77;;;9.13;;
59159;SDS011;44941;45.058;20.076;2024-03-02T05:03:35;15.25;;;10.07;;
59159;SDS011;44941;45.058;20.076;2024-03-02T05:06:02;13.93;;;9.25;;
59159;SDS011;44941;45.058;20.076;2024-03-02T05:08:28;11.93;;;8.23;;
59159;SDS011;44941;45.058;20.076;2024-03-02T05:10:54;12.02;;;7.75;;
59159;SDS011;44941;45.058;20.076;2024-03-02T05:13:40;13.43;;;8.25;;
59159;SDS011;44941;45.058;20.076;2024-03-02T05:16:06;12.23;;;7.72;;
59159;SDS011;44941;45.058;20.076;2024-03-02T05:18:34;10.98;;;7.65;;
59159;SDS011;44941;45.058;20.076;2024-03-02T05:21:00;10.52;;;6.93;;
59159;SDS011;44941;45.058;20.076;2024-03-02T05:23:26;10.25;;;7.03;;
59159;SDS011;44941;45.058;20.076;2024-03-02T05:25:52;10.70;;;6.53;;
59159;SDS011;44941;45.058;20.076;2024-03-02T05:28:18;8.80;;;6.00;;
59159;SDS011;44941;45.058;20.076;2024-03-02T05:30:44;9.55;;;6.28;;
59159;SDS011;44941;45.058;20.076;2024-03-02T05:33:11;11.68;;;7.13;;
59159;SDS011;44941;45.058;20.076;2024-03-02T05:35:37;11.07;;;7.47;;
59159;SDS011;44941;45.058;20.076;2024-03-02T05:38:03;12.68;;;6.70;;
59159;SDS011;44941;45.058;20.076;2024-03-02T05:40:29;14.45;;;7.90;;
59159;SDS011;44941;45.058;20.076;2024-03-02T05:42:55;8.75;;;5.82;;
59159;SDS011;44941;45.058;20.076;2024-03-02T05:45:22;11.18;;;6.47;;
59159;SDS011;44941;45.058;20.076;2024-03-02T05:47:48;13.23;;;7.30;;
59159;SDS011;44941;45.058;20.076;2024-03-02T05:50:14;12.25;;;7.57;;
59159;SDS011;44941;45.058;20.076;2024-03-02T05:52:40;11.88;;;7.50;;
59159;SDS011;44941;45.058;20.076;2024-03-02T05:55:06;10.93;;;6.38;;
59159;SDS011;44941;45.058;20.076;2024-03-02T05:57:32;11.20;;;7.07;;
59159;SDS011;44941;45.058;20.076;2024-03-02T06:00:24;11.85;;;6.07;;
59159;SDS011;44941;45.058;20.076;2024-03-02T06:02:50;11.10;;;6.40;;
59159;SDS011;44941;45.058;20.076;2024-03-02T06:05:16;8.93;;;5.40;;
59159;SDS011;44941;45.058;20.076;2024-03-02T06:07:43;10.05;;;5.80;;
59159;SDS011;44941;45.058;20.076;2024-03-02T06:10:10;9.80;;;5.85;;
59159;SDS011;44941;45.058;20.076;2024-03-02T06:12:36;9.20;;;6.20;;
59159;SDS011;44941;45.058;20.076;2024-03-02T06:15:02;9.07;;;5.43;;
59159;SDS011;44941;45.058;20.076;2024-03-02T06:17:29;7.32;;;4.65;;
59159;SDS011;44941;45.058;20.076;2024-03-02T06:19:55;8.60;;;5.53;;
59159;SDS011;44941;45.058;20.076;2024-03-02T06:22:21;12.55;;;7.63;;
59159;SDS011;44941;45.058;20.076;2024-03-02T06:24:50;10.10;;;6.35;;
59159;SDS011;44941;45.058;20.076;2024-03-02T06:27:16;12.40;;;6.30;;
59159;SDS011;44941;45.058;20.076;2024-03-02T06:29:42;13.38;;;7.45;;
59159;SDS011;44941;45.058;20.076;2024-03-02T06:32:08;12.32;;;8.07;;
59159;SDS011;44941;45.058;20.076;2024-03-02T06:34:34;13.30;;;9.20;;
59159;SDS011;44941;45.058;20.076;2024-03-02T06:37:00;13.20;;;9.30;;
59159;SDS011;44941;45.058;20.076;2024-03-02T06:39:26;12.57;;;7.63;;
59159;SDS011;44941;45.058;20.076;2024-03-02T06:41:52;12.77;;;7.22;;
59159;SDS011;44941;45.058;20.076;2024-03-02T06:44:18;11.77;;;6.75;;
59159;SDS011;44941;45.058;20.076;2024-03-02T06:46:44;11.55;;;6.13;;
59159;SDS011;44941;45.058;20.076;2024-03-02T06:49:10;9.32;;;5.05;;
59159;SDS011;44941;45.058;20.076;2024-03-02T06:51:36;11.55;;;5.88;;
59159;SDS011;44941;45.058;20.076;2024-03-02T06:54:02;11.27;;;5.57;;
59159;SDS011;44941;45.058;20.076;2024-03-02T06:56:28;8.80;;;5.35;;
59159;SDS011;44941;45.058;20.076;2024-03-02T06:58:55;9.70;;;5.75;;
59159;SDS011;44941;45.058;20.076;2024-03-02T07:01:21;11.45;;;5.38;;
59159;SDS011;44941;45.058;20.076;2024-03-02T07:03:51;11.10;;;5.20;;
59159;SDS011;44941;45.058;20.076;2024-03-02T07:06:17;10.07;;;5.35;;
59159;SDS011;44941;45.058;20.076;2024-03-02T07:08:43;9.65;;;5.13;;
59159;SDS011;44941;45.058;20.076;2024-03-02T07:11:09;9.95;;;4.35;;
59159;SDS011;44941;45.058;20.076;2024-03-02T07:13:35;8.27;;;4.22;;
59159;SDS011;44941;45.058;20.076;2024-03-02T07:16:01;8.20;;;4.18;;
59159;SDS011;44941;45.058;20.076;2024-03-02T07:18:27;7.93;;;4.60;;
59159;SDS011;44941;45.058;20.076;2024-03-02T07:20:53;7.68;;;3.22;;
59159;SDS011;44941;45.058;20.076;2024-03-02T07:23:20;7.72;;;3.67;;
59159;SDS011;44941;45.058;20.076;2024-03-02T07:25:49;9.48;;;3.90;;
59159;SDS011;44941;45.058;20.076;2024-03-02T07:28:15;11.45;;;4.72;;
59159;SDS011;44941;45.058;20.076;2024-03-02T07:30:41;6.35;;;3.60;;
59159;SDS011;44941;45.058;20.076;2024-03-02T07:33:08;8.05;;;4.65;;
59159;SDS011;44941;45.058;20.076;2024-03-02T07:35:34;6.15;;;3.25;;
59159;SDS011;44941;45.058;20.076;2024-03-02T07:38:00;9.75;;;3.85;;
59159;SDS011;44941;45.058;20.076;2024-03-02T07:40:26;5.80;;;3.20;;
59159;SDS011;44941;45.058;20.076;2024-03-02T07:42:52;7.68;;;4.00;;
59159;SDS011;44941;45.058;20.076;2024-03-02T07:45:18;8.20;;;4.88;;
59159;SDS011;44941;45.058;20.076;2024-03-02T07:47:45;11.25;;;3.65;;
59159;SDS011;44941;45.058;20.076;2024-03-02T07:50:11;7.32;;;2.78;;
59159;SDS011;44941;45.058;20.076;2024-03-02T07:52:37;5.53;;;2.58;;
59159;SDS011;44941;45.058;20.076;2024-03-02T07:55:04;5.53;;;2.65;;
59159;SDS011;44941;45.058;20.076;2024-03-02T07:57:30;8.52;;;4.65;;
59159;SDS011;44941;45.058;20.076;2024-03-02T07:59:56;11.80;;;3.10;;
59159;SDS011;44941;45.058;20.076;2024-03-02T08:02:24;4.15;;;2.40;;
59159;SDS011;44941;45.058;20.076;2024-03-02T08:04:50;5.03;;;2.47;;
59159;SDS011;44941;45.058;20.076;2024-03-02T08:07:16;4.60;;;2.13;;
59159;SDS011;44941;45.058;20.076;2024-03-02T08:09:42;5.47;;;2.92;;
59159;SDS011;44941;45.058;20.076;2024-03-02T08:12:08;7.85;;;2.88;;
59159;SDS011;44941;45.058;20.076;2024-03-02T08:14:34;5.43;;;2.40;;
59159;SDS011;44941;45.058;20.076;2024-03-02T08:17:00;7.22;;;2.35;;
59159;SDS011;44941;45.058;20.076;2024-03-02T08:19:28;6.25;;;2.33;;
59159;SDS011;44941;45.058;20.076;2024-03-02T08:21:54;6.05;;;2.38;;
59159;SDS011;44941;45.058;20.076;2024-03-02T08:24:20;5.85;;;2.40;;
59159;SDS011;44941;45.058;20.076;2024-03-02T08:26:46;5.05;;;2.60;;
59159;SDS011;44941;45.058;20.076;2024-03-02T08:29:12;5.47;;;2.83;;
59159;SDS011;44941;45.058;20.076;2024-03-02T08:31:38;5.72;;;2.88;;
59159;SDS011;44941;45.058;20.076;2024-03-02T08:34:05;6.93;;;2.90;;
59159;SDS011;44941;45.058;20.076;2024-03-02T08:36:31;9.23;;;4.60;;
59159;SDS011;44941;45.058;20.076;2024-03-02T08:38:57;11.30;;;4.70;;
59159;SDS011;44941;45.058;20.076;2024-03-02T08:41:23;6.75;;;3.30;;
59159;SDS011;44941;45.058;20.076;2024-03-02T08:43:49;8.90;;;3.70;;
59159;SDS011;44941;45.058;20.076;2024-03-02T08:46:15;10.98;;;4.40;;
59159;SDS011;44941;45.058;20.076;2024-03-02T08:48:41;11.55;;;5.50;;
59159;SDS011;44941;45.058;20.076;2024-03-02T08:51:07;10.00;;;5.30;;
59159;SDS011;44941;45.058;20.076;2024-03-02T08:53:35;12.88;;;6.80;;
59159;SDS011;44941;45.058;20.076;2024-03-02T08:56:01;13.45;;;9.60;;
59159;SDS011;44941;45.058;20.076;2024-03-02T08:58:30;7.65;;;4.22;;
59159;SDS011;44941;45.058;20.076;2024-03-02T09:00:56;10.00;;;5.80;;
59159;SDS011;44941;45.058;20.076;2024-03-02T09:03:22;7.63;;;3.80;;
59159;SDS011;44941;45.058;20.076;2024-03-02T09:05:48;8.68;;;3.60;;
59159;SDS011;44941;45.058;20.076;2024-03-02T09:08:14;9.43;;;3.70;;
59159;SDS011;44941;45.058;20.076;2024-03-02T09:10:40;8.13;;;3.47;;
59159;SDS011;44941;45.058;20.076;2024-03-02T09:13:07;6.78;;;3.60;;
59159;SDS011;44941;45.058;20.076;2024-03-02T09:15:33;6.63;;;3.33;;
59159;SDS011;44941;45.058;20.076;2024-03-02T09:18:02;6.28;;;3.13;;
59159;SDS011;44941;45.058;20.076;2024-03-02T09:20:28;7.75;;;3.78;;
59159;SDS011;44941;45.058;20.076;2024-03-02T09:22:54;7.93;;;3.58;;
59159;SDS011;44941;45.058;20.076;2024-03-02T09:25:20;8.00;;;4.22;;
59159;SDS011;44941;45.058;20.076;2024-03-02T09:27:46;8.50;;;4.43;;
59159;SDS011;44941;45.058;20.076;2024-03-02T09:30:12;9.20;;;4.20;;
59159;SDS011;44941;45.058;20.076;2024-03-02T09:32:39;7.60;;;4.20;;
59159;SDS011;44941;45.058;20.076;2024-03-02T09:35:05;9.93;;;5.05;;
59159;SDS011;44941;45.058;20.076;2024-03-02T09:37:31;11.75;;;5.25;;
59159;SDS011;44941;45.058;20.076;2024-03-02T09:39:57;11.73;;;5.13;;
59159;SDS011;44941;45.058;20.076;2024-03-02T09:42:24;11.20;;;6.15;;
59159;SDS011;44941;45.058;20.076;2024-03-02T09:44:51;13.00;;;5.47;;
59159;SDS011;44941;45.058;20.076;2024-03-02T09:47:17;9.95;;;5.13;;
59159;SDS011;44941;45.058;20.076;2024-03-02T09:49:43;7.97;;;3.90;;
59159;SDS011;44941;45.058;20.076;2024-03-02T09:52:10;8.85;;;3.75;;
59159;SDS011;44941;45.058;20.076;2024-03-02T09:54:36;11.05;;;3.10;;
59159;SDS011;44941;45.058;20.076;2024-03-02T09:57:02;11.10;;;3.33;;
59159;SDS011;44941;45.058;20.076;2024-03-02T09:59:28;7.38;;;3.40;;
59159;SDS011;44941;45.058;20.076;2024-03-02T10:02:03;12.55;;;3.60;;
59159;SDS011;44941;45.058;20.076;2024-03-02T10:04:32;9.35;;;3.38;;
59159;SDS011;44941;45.058;20.076;2024-03-02T10:09:37;8.55;;;3.80;;
59159;SDS011;44941;45.058;20.076;2024-03-02T10:12:03;7.15;;;3.70;;
59159;SDS011;44941;45.058;20.076;2024-03-02T10:14:30;9.00;;;3.40;;
59159;SDS011;44941;45.058;20.076;2024-03-02T10:17:01;9.20;;;3.78;;
59159;SDS011;44941;45.058;20.076;2024-03-02T10:19:27;6.43;;;3.55;;
59159;SDS011;44941;45.058;20.076;2024-03-02T10:21:58;6.93;;;3.08;;
59159;SDS011;44941;45.058;20.076;2024-03-02T10:24:25;8.30;;;2.90;;
59159;SDS011;44941;45.058;20.076;2024-03-02T10:26:51;7.57;;;2.90;;
59159;SDS011;44941;45.058;20.076;2024-03-02T10:29:18;7.85;;;3.17;;
59159;SDS011;44941;45.058;20.076;2024-03-02T10:31:44;8.70;;;3.60;;
59159;SDS011;44941;45.058;20.076;2024-03-02T10:34:11;8.98;;;3.67;;
59159;SDS011;44941;45.058;20.076;2024-03-02T10:36:40;11.20;;;5.57;;
59159;SDS011;44941;45.058;20.076;2024-03-02T10:39:07;7.95;;;4.20;;
59159;SDS011;44941;45.058;20.076;2024-03-02T10:41:37;10.80;;;4.70;;
59159;SDS011;44941;45.058;20.076;2024-03-02T10:44:04;12.65;;;5.72;;
59159;SDS011;44941;45.058;20.076;2024-03-02T10:46:32;11.07;;;6.13;;
59159;SDS011;44941;45.058;20.076;2024-03-02T10:49:01;7.82;;;4.13;;
59159;SDS011;44941;45.058;20.076;2024-03-02T10:51:30;11.50;;;5.60;;
59159;SDS011;44941;45.058;20.076;2024-03-02T10:53:57;11.18;;;5.10;;
59159;SDS011;44941;45.058;20.076;2024-03-02T10:56:30;9.40;;;5.05;;
59159;SDS011;44941;45.058;20.076;2024-03-02T10:59:27;16.67;;;5.82;;
59159;SDS011;44941;45.058;20.076;2024-03-02T11:01:43;15.00;;;6.57;;
59159;SDS011;44941;45.058;20.076;2024-03-02T11:04:12;9.70;;;4.20;;
59159;SDS011;44941;45.058;20.076;2024-03-02T11:06:42;11.85;;;6.07;;
59159;SDS011;44941;45.058;20.076;2024-03-02T11:09:12;11.70;;;5.93;;
59159;SDS011;44941;45.058;20.076;2024-03-02T11:11:40;15.35;;;6.10;;
59159;SDS011;44941;45.058;20.076;2024-03-02T11:14:10;12.10;;;5.20;;
59159;SDS011;44941;45.058;20.076;2024-03-02T11:16:39;11.40;;;4.43;;
59159;SDS011;44941;45.058;20.076;2024-03-02T11:19:07;7.00;;;4.05;;
59159;SDS011;44941;45.058;20.076;2024-03-02T11:21:34;11.27;;;5.65;;
59159;SDS011;44941;45.058;20.076;2024-03-02T11:24:27;9.55;;;4.78;;
59159;SDS011;44941;45.058;20.076;2024-03-02T11:26:48;14.60;;;4.43;;
59159;SDS011;44941;45.058;20.076;2024-03-02T11:32:42;9.68;;;4.88;;
59159;SDS011;44941;45.058;20.076;2024-03-02T11:34:46;13.85;;;5.80;;
59159;SDS011;44941;45.058;20.076;2024-03-02T11:37:14;9.93;;;4.47;;
59159;SDS011;44941;45.058;20.076;2024-03-02T11:39:41;8.52;;;4.20;;
59159;SDS011;44941;45.058;20.076;2024-03-02T11:42:07;9.90;;;5.72;;
59159;SDS011;44941;45.058;20.076;2024-03-02T11:44:39;9.20;;;4.10;;
59159;SDS011;44941;45.058;20.076;2024-03-02T11:47:05;13.18;;;5.25;;
59159;SDS011;44941;45.058;20.076;2024-03-02T11:49:45;8.85;;;4.20;;
59159;SDS011;44941;45.058;20.076;2024-03-02T11:52:12;10.40;;;4.53;;
59159;SDS011;44941;45.058;20.076;2024-03-02T11:57:07;10.20;;;4.70;;
59159;SDS011;44941;45.058;20.076;2024-03-02T11:59:33;12.55;;;4.40;;
59159;SDS011;44941;45.058;20.076;2024-03-02T12:02:00;8.82;;;4.82;;
59159;SDS011;44941;45.058;20.076;2024-03-02T12:04:26;12.90;;;5.10;;
59159;SDS011;44941;45.058;20.076;2024-03-02T12:06:56;11.38;;;5.18;;
59159;SDS011;44941;45.058;20.076;2024-03-02T12:09:24;13.82;;;5.63;;
59159;SDS011;44941;45.058;20.076;2024-03-02T12:12:12;11.05;;;4.40;;
59159;SDS011;44941;45.058;20.076;2024-03-02T12:14:49;8.90;;;4.82;;
59159;SDS011;44941;45.058;20.076;2024-03-02T12:17:15;11.40;;;5.45;;
59159;SDS011;44941;45.058;20.076;2024-03-02T12:19:42;10.30;;;5.18;;
59159;SDS011;44941;45.058;20.076;2024-03-02T12:22:08;8.93;;;4.40;;
59159;SDS011;44941;45.058;20.076;2024-03-02T12:24:34;13.35;;;4.53;;
59159;SDS011;44941;45.058;20.076;2024-03-02T12:27:00;11.35;;;5.50;;
59159;SDS011;44941;45.058;20.076;2024-03-02T12:29:27;13.20;;;7.03;;
59159;SDS011;44941;45.058;20.076;2024-03-02T12:31:53;10.98;;;5.50;;
59159;SDS011;44941;45.058;20.076;2024-03-02T12:34:19;8.02;;;4.20;;
59159;SDS011;44941;45.058;20.076;2024-03-02T12:36:46;9.95;;;5.60;;
59159;SDS011;44941;45.058;20.076;2024-03-02T12:39:18;8.90;;;4.70;;
59159;SDS011;44941;45.058;20.076;2024-03-02T12:41:44;12.15;;;4.82;;
59159;SDS011;44941;45.058;20.076;2024-03-02T12:44:13;14.75;;;6.88;;
59159;SDS011;44941;45.058;20.076;2024-03-02T12:46:39;9.32;;;4.70;;
59159;SDS011;44941;45.058;20.076;2024-03-02T12:49:09;7.57;;;4.10;;
59159;SDS011;44941;45.058;20.076;2024-03-02T12:51:36;10.40;;;4.93;;
59159;SDS011;44941;45.058;20.076;2024-03-02T12:54:02;10.93;;;4.47;;
59159;SDS011;44941;45.058;20.076;2024-03-02T12:56:30;13.32;;;5.60;;
59159;SDS011;44941;45.058;20.076;2024-03-02T12:58:57;9.57;;;5.32;;
59159;SDS011;44941;45.058;20.076;2024-03-02T13:01:23;8.47;;;4.20;;
59159;SDS011;44941;45.058;20.076;2024-03-02T13:03:50;9.00;;;3.95;;
59159;SDS011;44941;45.058;20.076;2024-03-02T13:06:16;22.45;;;8.10;;
59159;SDS011;44941;45.058;20.076;2024-03-02T13:08:43;45.30;;;14.05;;
59159;SDS011;44941;45.058;20.076;2024-03-02T13:11:09;34.92;;;11.90;;
59159;SDS011;44941;45.058;20.076;2024-03-02T13:13:35;35.05;;;11.70;;
59159;SDS011;44941;45.058;20.076;2024-03-02T13:16:03;10.75;;;5.22;;
59159;SDS011;44941;45.058;20.076;2024-03-02T13:18:29;8.98;;;4.60;;
59159;SDS011;44941;45.058;20.076;2024-03-02T13:20:56;24.10;;;7.03;;
59159;SDS011;44941;45.058;20.076;2024-03-02T13:23:22;52.53;;;13.95;;
59159;SDS011;44941;45.058;20.076;2024-03-02T13:25:48;12.73;;;6.10;;
59159;SDS011;44941;45.058;20.076;2024-03-02T13:28:14;17.08;;;7.15;;
59159;SDS011;44941;45.058;20.076;2024-03-02T13:30:40;16.92;;;6.40;;
59159;SDS011;44941;45.058;20.076;2024-03-02T13:33:06;11.45;;;5.28;;
59159;SDS011;44941;45.058;20.076;2024-03-02T13:35:32;20.77;;;11.07;;
59159;SDS011;44941;45.058;20.076;2024-03-02T13:37:58;12.73;;;5.68;;
59159;SDS011;44941;45.058;20.076;2024-03-02T13:40:25;10.80;;;4.72;;
59159;SDS011;44941;45.058;20.076;2024-03-02T13:42:51;14.00;;;5.30;;
59159;SDS011;44941;45.058;20.076;2024-03-02T13:45:19;13.57;;;5.38;;
59159;SDS011;44941;45.058;20.076;2024-03-02T13:47:45;9.80;;;4.63;;
59159;SDS011;44941;45.058;20.076;2024-03-02T13:50:11;8.02;;;4.60;;
59159;SDS011;44941;45.058;20.076;2024-03-02T13:52:37;10.95;;;5.53;;
59159;SDS011;44941;45.058;20.076;2024-03-02T13:55:03;9.80;;;4.50;;
59159;SDS011;44941;45.058;20.076;2024-03-02T13:57:29;9.88;;;4.97;;
59159;SDS011;44941;45.058;20.076;2024-03-02T13:59:55;10.77;;;5.15;;
59159;SDS011;44941;45.058;20.076;2024-03-02T14:02:22;10.80;;;5.07;;
59159;SDS011;44941;45.058;20.076;2024-03-02T14:04:48;8.45;;;4.32;;
59159;SDS011;44941;45.058;20.076;2024-03-02T14:07:15;10.38;;;5.38;;
59159;SDS011;44941;45.058;20.076;2024-03-02T14:09:41;11.57;;;5.55;;
59159;SDS011;44941;45.058;20.076;2024-03-02T14:12:07;14.02;;;7.55;;
59159;SDS011;44941;45.058;20.076;2024-03-02T14:14:35;9.60;;;4.35;;
59159;SDS011;44941;45.058;20.076;2024-03-02T14:17:01;11.27;;;5.10;;
59159;SDS011;44941;45.058;20.076;2024-03-02T14:19:31;9.40;;;4.70;;
59159;SDS011;44941;45.058;20.076;2024-03-02T14:21:57;11.48;;;4.65;;
59159;SDS011;44941;45.058;20.076;2024-03-02T14:24:23;9.90;;;4.57;;
59159;SDS011;44941;45.058;20.076;2024-03-02T14:26:51;10.95;;;4.75;;
59159;SDS011;44941;45.058;20.076;2024-03-02T14:29:17;8.57;;;4.70;;